sensor_id;sensor_type;location;lat;lon;timestamp;P1;durP1;ratioP1;P2;durP2;ratioP2
22415;SDS011;12204;50.600;4.608;2023-02-01T00:02:42;4.53;;;1.50;;
22415;SDS011;12204;50.600;4.608;2023-02-01T00:07:46;4.38;;;1.45;;
22415;SDS011;12204;50.600;4.608;2023-02-01T00:12:52;4.95;;;1.65;;
22415;SDS011;12204;50.600;4.608;2023-02-01T00:17:56;3.38;;;1.20;;
22415;SDS011;12204;50.600;4.608;2023-02-01T00:23:00;5.85;;;1.90;;
22415;SDS011;12204;50.600;4.608;2023-02-01T00:28:05;5.47;;;1.50;;
22415;SDS011;12204;50.600;4.608;2023-02-01T00:33:08;5.07;;;1.50;;
22415;SDS011;12204;50.600;4.608;2023-02-01T00:38:12;3.85;;;1.45;;
22415;SDS011;12204;50.600;4.608;2023-02-01T00:43:17;4.55;;;1.80;;
22415;SDS011;12204;50.600;4.608;2023-02-01T00:48:21;4.65;;;1.50;;
22415;SDS011;12204;50.600;4.608;2023-02-01T00:53:26;5.15;;;1.70;;
22415;SDS011;12204;50.600;4.608;2023-02-01T00:58:31;5.35;;;1.73;;
22415;SDS011;12204;50.600;4.608;2023-02-01T01:03:36;4.82;;;1.40;;
22415;SDS011;12204;50.600;4.608;2023-02-01T01:08:44;4.40;;;1.60;;
22415;SDS011;12204;50.600;4.608;2023-02-01T01:13:49;5.30;;;1.50;;
22415;SDS011;12204;50.600;4.608;2023-02-01T01:18:56;4.38;;;1.42;;
22415;SDS011;12204;50.600;4.608;2023-02-01T01:24:00;5.78;;;1.63;;
22415;SDS011;12204;50.600;4.608;2023-02-01T01:29:05;6.05;;;1.83;;
22415;SDS011;12204;50.600;4.608;2023-02-01T01:34:11;4.60;;;1.52;;
22415;SDS011;12204;50.600;4.608;2023-02-01T01:39:15;4.30;;;1.63;;
22415;SDS011;12204;50.600;4.608;2023-02-01T01:50:06;5.63;;;1.70;;
22415;SDS011;12204;50.600;4.608;2023-02-01T01:55:16;6.13;;;1.75;;
22415;SDS011;12204;50.600;4.608;2023-02-01T02:00:24;4.77;;;1.60;;
22415;SDS011;12204;50.600;4.608;2023-02-01T02:05:30;6.35;;;2.00;;
22415;SDS011;12204;50.600;4.608;2023-02-01T02:10:34;6.22;;;1.92;;
22415;SDS011;12204;50.600;4.608;2023-02-01T02:16:02;7.20;;;2.13;;
22415;SDS011;12204;50.600;4.608;2023-02-01T02:21:33;5.07;;;1.75;;
22415;SDS011;12204;50.600;4.608;2023-02-01T02:27:05;7.93;;;2.10;;
22415;SDS011;12204;50.600;4.608;2023-02-01T02:32:33;6.65;;;2.08;;
22415;SDS011;12204;50.600;4.608;2023-02-01T02:38:23;6.03;;;2.00;;
22415;SDS011;12204;50.600;4.608;2023-02-01T02:43:37;7.53;;;2.20;;
22415;SDS011;12204;50.600;4.608;2023-02-01T02:49:11;7.07;;;1.90;;
22415;SDS011;12204;50.600;4.608;2023-02-01T02:54:22;6.65;;;2.08;;
22415;SDS011;12204;50.600;4.608;2023-02-01T02:59:49;5.47;;;1.80;;
22415;SDS011;12204;50.600;4.608;2023-02-01T03:05:14;5.03;;;1.73;;
22415;SDS011;12204;50.600;4.608;2023-02-01T03:10:23;5.55;;;1.80;;
22415;SDS011;12204;50.600;4.608;2023-02-01T03:15:39;7.03;;;1.90;;
22415;SDS011;12204;50.600;4.608;2023-02-01T03:20:54;5.90;;;1.95;;
22415;SDS011;12204;50.600;4.608;2023-02-01T03:25:59;6.38;;;1.88;;
22415;SDS011;12204;50.600;4.608;2023-02-01T03:31:06;7.13;;;2.30;;
22415;SDS011;12204;50.600;4.608;2023-02-01T03:36:17;8.27;;;1.90;;
22415;SDS011;12204;50.600;4.608;2023-02-01T03:41:33;7.85;;;2.20;;
22415;SDS011;12204;50.600;4.608;2023-02-01T03:46:47;6.55;;;2.10;;
22415;SDS011;12204;50.600;4.608;2023-02-01T03:51:58;6.47;;;1.90;;
22415;SDS011;12204;50.600;4.608;2023-02-01T03:57:04;6.32;;;1.70;;
22415;SDS011;12204;50.600;4.608;2023-02-01T04:02:15;6.38;;;2.10;;
22415;SDS011;12204;50.600;4.608;2023-02-01T04:07:20;6.60;;;1.80;;
22415;SDS011;12204;50.600;4.608;2023-02-01T04:12:24;5.05;;;1.67;;
22415;SDS011;12204;50.600;4.608;2023-02-01T04:17:28;7.07;;;1.80;;
22415;SDS011;12204;50.600;4.608;2023-02-01T04:22:34;4.68;;;1.63;;
22415;SDS011;12204;50.600;4.608;2023-02-01T04:27:37;7.05;;;1.83;;
22415;SDS011;12204;50.600;4.608;2023-02-01T04:32:41;6.28;;;1.75;;
22415;SDS011;12204;50.600;4.608;2023-02-01T04:37:46;6.03;;;1.90;;
22415;SDS011;12204;50.600;4.608;2023-02-01T04:42:50;7.10;;;1.80;;
22415;SDS011;12204;50.600;4.608;2023-02-01T04:47:54;6.18;;;1.85;;
22415;SDS011;12204;50.600;4.608;2023-02-01T04:52:59;6.07;;;1.73;;
22415;SDS011;12204;50.600;4.608;2023-02-01T04:58:03;5.53;;;1.70;;
22415;SDS011;12204;50.600;4.608;2023-02-01T05:03:07;6.53;;;1.92;;
22415;SDS011;12204;50.600;4.608;2023-02-01T05:08:12;7.72;;;1.95;;
22415;SDS011;12204;50.600;4.608;2023-02-01T05:13:16;5.07;;;1.60;;
22415;SDS011;12204;50.600;4.608;2023-02-01T05:18:37;6.97;;;1.75;;
22415;SDS011;12204;50.600;4.608;2023-02-01T05:23:42;6.80;;;1.90;;
22415;SDS011;12204;50.600;4.608;2023-02-01T05:29:06;6.63;;;1.90;;
22415;SDS011;12204;50.600;4.608;2023-02-01T05:34:11;6.60;;;1.60;;
22415;SDS011;12204;50.600;4.608;2023-02-01T05:39:17;5.72;;;1.67;;
22415;SDS011;12204;50.600;4.608;2023-02-01T05:44:21;7.65;;;1.83;;
22415;SDS011;12204;50.600;4.608;2023-02-01T05:49:25;6.28;;;1.70;;
22415;SDS011;12204;50.600;4.608;2023-02-01T05:54:30;5.87;;;1.70;;
22415;SDS011;12204;50.600;4.608;2023-02-01T05:59:33;6.78;;;1.63;;
22415;SDS011;12204;50.600;4.608;2023-02-01T06:04:42;6.35;;;1.60;;
22415;SDS011;12204;50.600;4.608;2023-02-01T06:09:47;7.32;;;1.70;;
22415;SDS011;12204;50.600;4.608;2023-02-01T06:14:51;7.05;;;1.70;;
22415;SDS011;12204;50.600;4.608;2023-02-01T06:19:54;6.00;;;1.55;;
22415;SDS011;12204;50.600;4.608;2023-02-01T06:25:00;7.35;;;1.80;;
22415;SDS011;12204;50.600;4.608;2023-02-01T06:30:04;7.00;;;1.77;;
22415;SDS011;12204;50.600;4.608;2023-02-01T06:35:10;7.45;;;1.90;;
22415;SDS011;12204;50.600;4.608;2023-02-01T06:40:18;5.95;;;1.70;;
22415;SDS011;12204;50.600;4.608;2023-02-01T06:45:23;7.85;;;1.85;;
22415;SDS011;12204;50.600;4.608;2023-02-01T06:50:27;7.07;;;1.73;;
22415;SDS011;12204;50.600;4.608;2023-02-01T06:55:32;5.63;;;1.60;;
22415;SDS011;12204;50.600;4.608;2023-02-01T07:00:36;7.25;;;1.73;;
22415;SDS011;12204;50.600;4.608;2023-02-01T07:05:39;6.03;;;1.50;;
22415;SDS011;12204;50.600;4.608;2023-02-01T07:10:45;7.00;;;1.60;;
22415;SDS011;12204;50.600;4.608;2023-02-01T07:15:48;8.13;;;1.80;;
22415;SDS011;12204;50.600;4.608;2023-02-01T07:20:52;7.05;;;1.88;;
22415;SDS011;12204;50.600;4.608;2023-02-01T07:25:58;6.40;;;1.60;;
22415;SDS011;12204;50.600;4.608;2023-02-01T07:31:06;7.28;;;1.63;;
22415;SDS011;12204;50.600;4.608;2023-02-01T07:36:15;5.60;;;1.48;;
22415;SDS011;12204;50.600;4.608;2023-02-01T07:41:21;7.20;;;1.75;;
22415;SDS011;12204;50.600;4.608;2023-02-01T07:46:25;6.68;;;1.70;;
22415;SDS011;12204;50.600;4.608;2023-02-01T07:51:29;6.45;;;1.63;;
22415;SDS011;12204;50.600;4.608;2023-02-01T07:56:34;8.82;;;1.75;;
22415;SDS011;12204;50.600;4.608;2023-02-01T08:01:38;6.53;;;1.42;;
22415;SDS011;12204;50.600;4.608;2023-02-01T08:06:41;6.35;;;1.50;;
22415;SDS011;12204;50.600;4.608;2023-02-01T08:11:46;6.63;;;1.63;;
22415;SDS011;12204;50.600;4.608;2023-02-01T08:16:50;6.63;;;1.60;;
22415;SDS011;12204;50.600;4.608;2023-02-01T08:21:54;9.07;;;2.08;;
22415;SDS011;12204;50.600;4.608;2023-02-01T08:26:59;6.05;;;1.50;;
22415;SDS011;12204;50.600;4.608;2023-02-01T08:32:04;7.05;;;1.65;;
22415;SDS011;12204;50.600;4.608;2023-02-01T08:37:09;7.05;;;1.65;;
22415;SDS011;12204;50.600;4.608;2023-02-01T08:42:14;8.07;;;1.77;;
22415;SDS011;12204;50.600;4.608;2023-02-01T08:47:36;7.63;;;1.60;;
22415;SDS011;12204;50.600;4.608;2023-02-01T08:52:40;7.15;;;1.80;;
22415;SDS011;12204;50.600;4.608;2023-02-01T08:57:45;7.15;;;1.60;;
22415;SDS011;12204;50.600;4.608;2023-02-01T09:02:49;9.75;;;1.80;;
22415;SDS011;12204;50.600;4.608;2023-02-01T09:07:52;7.55;;;1.48;;
22415;SDS011;12204;50.600;4.608;2023-02-01T09:12:57;10.95;;;1.80;;
22415;SDS011;12204;50.600;4.608;2023-02-01T09:18:01;6.43;;;1.60;;
22415;SDS011;12204;50.600;4.608;2023-02-01T09:23:05;7.45;;;1.58;;
22415;SDS011;12204;50.600;4.608;2023-02-01T09:28:10;9.02;;;1.75;;
22415;SDS011;12204;50.600;4.608;2023-02-01T09:33:14;9.48;;;1.85;;
22415;SDS011;12204;50.600;4.608;2023-02-01T09:38:19;8.63;;;1.70;;
22415;SDS011;12204;50.600;4.608;2023-02-01T09:43:28;10.63;;;1.90;;
22415;SDS011;12204;50.600;4.608;2023-02-01T09:48:44;10.50;;;1.70;;
22415;SDS011;12204;50.600;4.608;2023-02-01T09:53:52;9.93;;;1.80;;
22415;SDS011;12204;50.600;4.608;2023-02-01T09:59:08;7.90;;;1.80;;
22415;SDS011;12204;50.600;4.608;2023-02-01T10:04:29;12.57;;;2.10;;
22415;SDS011;12204;50.600;4.608;2023-02-01T10:09:39;7.90;;;1.88;;
22415;SDS011;12204;50.600;4.608;2023-02-01T10:14:59;8.90;;;1.65;;
22415;SDS011;12204;50.600;4.608;2023-02-01T10:20:27;12.90;;;2.00;;
22415;SDS011;12204;50.600;4.608;2023-02-01T10:25:48;9.18;;;1.90;;
22415;SDS011;12204;50.600;4.608;2023-02-01T10:30:59;7.65;;;1.75;;
22415;SDS011;12204;50.600;4.608;2023-02-01T10:36:08;10.15;;;1.80;;
22415;SDS011;12204;50.600;4.608;2023-02-01T10:41:20;10.25;;;2.05;;
22415;SDS011;12204;50.600;4.608;2023-02-01T10:46:34;8.48;;;1.63;;
22415;SDS011;12204;50.600;4.608;2023-02-01T10:51:39;8.50;;;1.83;;
22415;SDS011;12204;50.600;4.608;2023-02-01T10:56:49;10.40;;;1.85;;
22415;SDS011;12204;50.600;4.608;2023-02-01T11:01:59;7.43;;;1.63;;
22415;SDS011;12204;50.600;4.608;2023-02-01T11:07:19;9.73;;;1.92;;
22415;SDS011;12204;50.600;4.608;2023-02-01T11:12:29;12.10;;;2.00;;
22415;SDS011;12204;50.600;4.608;2023-02-01T11:17:39;10.50;;;2.05;;
22415;SDS011;12204;50.600;4.608;2023-02-01T11:22:47;10.30;;;1.95;;
22415;SDS011;12204;50.600;4.608;2023-02-01T11:27:56;9.50;;;2.13;;
22415;SDS011;12204;50.600;4.608;2023-02-01T11:33:02;8.90;;;2.00;;
22415;SDS011;12204;50.600;4.608;2023-02-01T11:38:21;9.17;;;1.97;;
22415;SDS011;12204;50.600;4.608;2023-02-01T11:43:34;7.82;;;1.65;;
22415;SDS011;12204;50.600;4.608;2023-02-01T11:48:39;8.75;;;1.70;;
22415;SDS011;12204;50.600;4.608;2023-02-01T11:53:50;10.23;;;1.80;;
22415;SDS011;12204;50.600;4.608;2023-02-01T11:59:22;8.88;;;1.73;;
22415;SDS011;12204;50.600;4.608;2023-02-01T12:05:15;9.70;;;1.90;;
22415;SDS011;12204;50.600;4.608;2023-02-01T12:10:38;7.03;;;1.58;;
22415;SDS011;12204;50.600;4.608;2023-02-01T12:16:00;9.90;;;1.73;;
22415;SDS011;12204;50.600;4.608;2023-02-01T12:21:21;9.57;;;1.85;;
22415;SDS011;12204;50.600;4.608;2023-02-01T12:26:44;7.72;;;1.80;;
22415;SDS011;12204;50.600;4.608;2023-02-01T12:32:11;7.75;;;1.90;;
22415;SDS011;12204;50.600;4.608;2023-02-01T12:37:41;7.20;;;1.70;;
22415;SDS011;12204;50.600;4.608;2023-02-01T12:43:01;8.02;;;1.80;;
22415;SDS011;12204;50.600;4.608;2023-02-01T12:48:18;7.18;;;1.70;;
22415;SDS011;12204;50.600;4.608;2023-02-01T12:53:37;7.93;;;1.80;;
22415;SDS011;12204;50.600;4.608;2023-02-01T12:58:50;8.23;;;1.45;;
22415;SDS011;12204;50.600;4.608;2023-02-01T13:03:58;9.18;;;1.90;;
22415;SDS011;12204;50.600;4.608;2023-02-01T13:09:14;7.80;;;1.55;;
22415;SDS011;12204;50.600;4.608;2023-02-01T13:14:27;7.18;;;1.58;;
22415;SDS011;12204;50.600;4.608;2023-02-01T13:19:43;8.18;;;1.85;;
22415;SDS011;12204;50.600;4.608;2023-02-01T13:24:56;8.38;;;1.60;;
22415;SDS011;12204;50.600;4.608;2023-02-01T13:30:03;6.78;;;1.52;;
22415;SDS011;12204;50.600;4.608;2023-02-01T13:35:23;9.73;;;1.80;;
22415;SDS011;12204;50.600;4.608;2023-02-01T13:40:54;6.43;;;1.40;;
22415;SDS011;12204;50.600;4.608;2023-02-01T13:46:18;9.00;;;1.70;;
22415;SDS011;12204;50.600;4.608;2023-02-01T13:51:32;8.63;;;1.60;;
22415;SDS011;12204;50.600;4.608;2023-02-01T13:56:41;6.95;;;1.60;;
22415;SDS011;12204;50.600;4.608;2023-02-01T14:01:46;7.30;;;1.60;;
22415;SDS011;12204;50.600;4.608;2023-02-01T14:06:50;9.88;;;1.70;;
22415;SDS011;12204;50.600;4.608;2023-02-01T14:17:52;7.55;;;1.75;;
22415;SDS011;12204;50.600;4.608;2023-02-01T14:23:25;7.15;;;1.52;;
22415;SDS011;12204;50.600;4.608;2023-02-01T14:28:36;8.27;;;1.70;;
22415;SDS011;12204;50.600;4.608;2023-02-01T14:33:47;7.10;;;1.42;;
22415;SDS011;12204;50.600;4.608;2023-02-01T14:38:51;8.10;;;1.67;;
22415;SDS011;12204;50.600;4.608;2023-02-01T14:55:33;5.80;;;1.40;;
22415;SDS011;12204;50.600;4.608;2023-02-01T15:00:47;7.50;;;1.83;;
22415;SDS011;12204;50.600;4.608;2023-02-01T15:05:56;7.00;;;1.50;;
22415;SDS011;12204;50.600;4.608;2023-02-01T15:11:03;9.25;;;1.60;;
22415;SDS011;12204;50.600;4.608;2023-02-01T15:16:17;6.72;;;1.60;;
22415;SDS011;12204;50.600;4.608;2023-02-01T15:21:22;4.95;;;1.35;;
22415;SDS011;12204;50.600;4.608;2023-02-01T15:26:32;7.05;;;1.55;;
22415;SDS011;12204;50.600;4.608;2023-02-01T15:31:38;6.57;;;1.40;;
22415;SDS011;12204;50.600;4.608;2023-02-01T15:36:46;7.45;;;1.45;;
22415;SDS011;12204;50.600;4.608;2023-02-01T15:42:09;7.83;;;1.50;;
22415;SDS011;12204;50.600;4.608;2023-02-01T15:47:18;5.63;;;1.67;;
22415;SDS011;12204;50.600;4.608;2023-02-01T15:52:30;7.55;;;1.60;;
22415;SDS011;12204;50.600;4.608;2023-02-01T15:57:40;6.70;;;1.45;;
22415;SDS011;12204;50.600;4.608;2023-02-01T16:02:52;6.47;;;1.50;;
22415;SDS011;12204;50.600;4.608;2023-02-01T16:08:00;7.38;;;1.67;;
22415;SDS011;12204;50.600;4.608;2023-02-01T16:13:09;7.20;;;1.50;;
22415;SDS011;12204;50.600;4.608;2023-02-01T16:18:15;6.03;;;1.50;;
22415;SDS011;12204;50.600;4.608;2023-02-01T16:23:19;6.40;;;1.40;;
22415;SDS011;12204;50.600;4.608;2023-02-01T16:28:23;8.05;;;1.40;;
22415;SDS011;12204;50.600;4.608;2023-02-01T16:33:28;5.63;;;1.50;;
22415;SDS011;12204;50.600;4.608;2023-02-01T16:38:32;6.05;;;1.63;;
22415;SDS011;12204;50.600;4.608;2023-02-01T16:43:36;5.90;;;1.45;;
22415;SDS011;12204;50.600;4.608;2023-02-01T16:48:42;8.77;;;2.03;;
22415;SDS011;12204;50.600;4.608;2023-02-01T16:53:52;7.35;;;1.88;;
22415;SDS011;12204;50.600;4.608;2023-02-01T16:58:58;8.40;;;2.10;;
22415;SDS011;12204;50.600;4.608;2023-02-01T17:04:04;8.63;;;2.22;;
22415;SDS011;12204;50.600;4.608;2023-02-01T17:09:08;9.63;;;2.60;;
22415;SDS011;12204;50.600;4.608;2023-02-01T17:14:14;8.27;;;2.10;;
22415;SDS011;12204;50.600;4.608;2023-02-01T17:19:22;7.45;;;2.17;;
22415;SDS011;12204;50.600;4.608;2023-02-01T17:24:27;8.10;;;2.70;;
22415;SDS011;12204;50.600;4.608;2023-02-01T17:29:48;9.00;;;2.30;;
22415;SDS011;12204;50.600;4.608;2023-02-01T17:34:55;8.10;;;2.50;;
22415;SDS011;12204;50.600;4.608;2023-02-01T17:39:59;10.90;;;2.70;;
22415;SDS011;12204;50.600;4.608;2023-02-01T17:45:10;9.65;;;2.50;;
22415;SDS011;12204;50.600;4.608;2023-02-01T17:50:29;7.97;;;2.33;;
22415;SDS011;12204;50.600;4.608;2023-02-01T17:55:37;7.78;;;2.65;;
22415;SDS011;12204;50.600;4.608;2023-02-01T18:00:46;7.43;;;2.35;;
22415;SDS011;12204;50.600;4.608;2023-02-01T18:05:53;11.48;;;2.40;;
22415;SDS011;12204;50.600;4.608;2023-02-01T18:11:00;8.30;;;2.65;;
22415;SDS011;12204;50.600;4.608;2023-02-01T18:16:04;9.20;;;2.45;;
22415;SDS011;12204;50.600;4.608;2023-02-01T18:21:12;7.78;;;2.67;;
22415;SDS011;12204;50.600;4.608;2023-02-01T18:26:18;8.30;;;2.33;;
22415;SDS011;12204;50.600;4.608;2023-02-01T18:31:22;9.60;;;3.00;;
22415;SDS011;12204;50.600;4.608;2023-02-01T18:36:30;9.18;;;2.60;;
22415;SDS011;12204;50.600;4.608;2023-02-01T18:41:33;9.50;;;2.72;;
22415;SDS011;12204;50.600;4.608;2023-02-01T18:46:37;10.10;;;2.85;;
22415;SDS011;12204;50.600;4.608;2023-02-01T18:51:42;8.27;;;2.47;;
22415;SDS011;12204;50.600;4.608;2023-02-01T18:56:47;9.15;;;2.60;;
22415;SDS011;12204;50.600;4.608;2023-02-01T19:01:50;10.27;;;2.47;;
22415;SDS011;12204;50.600;4.608;2023-02-01T19:06:56;8.63;;;2.42;;
22415;SDS011;12204;50.600;4.608;2023-02-01T19:12:01;8.27;;;2.40;;
22415;SDS011;12204;50.600;4.608;2023-02-01T19:17:06;9.30;;;2.33;;
22415;SDS011;12204;50.600;4.608;2023-02-01T19:22:11;9.25;;;2.65;;
22415;SDS011;12204;50.600;4.608;2023-02-01T19:27:14;7.53;;;2.30;;
22415;SDS011;12204;50.600;4.608;2023-02-01T19:32:18;8.75;;;2.55;;
22415;SDS011;12204;50.600;4.608;2023-02-01T19:37:23;7.07;;;2.03;;
22415;SDS011;12204;50.600;4.608;2023-02-01T19:42:27;7.82;;;2.10;;
22415;SDS011;12204;50.600;4.608;2023-02-01T19:47:31;9.02;;;2.35;;
22415;SDS011;12204;50.600;4.608;2023-02-01T19:52:37;8.10;;;2.25;;
22415;SDS011;12204;50.600;4.608;2023-02-01T19:57:40;8.57;;;2.33;;
22415;SDS011;12204;50.600;4.608;2023-02-01T20:02:45;9.52;;;2.70;;
22415;SDS011;12204;50.600;4.608;2023-02-01T20:07:50;6.78;;;1.88;;
22415;SDS011;12204;50.600;4.608;2023-02-01T20:12:54;6.85;;;2.10;;
22415;SDS011;12204;50.600;4.608;2023-02-01T20:17:58;8.63;;;2.47;;
22415;SDS011;12204;50.600;4.608;2023-02-01T20:23:03;6.88;;;2.20;;
22415;SDS011;12204;50.600;4.608;2023-02-01T20:28:08;9.52;;;2.10;;
22415;SDS011;12204;50.600;4.608;2023-02-01T20:33:11;7.35;;;1.92;;
22415;SDS011;12204;50.600;4.608;2023-02-01T20:38:17;8.07;;;2.30;;
22415;SDS011;12204;50.600;4.608;2023-02-01T20:43:21;7.57;;;2.25;;
22415;SDS011;12204;50.600;4.608;2023-02-01T20:48:25;7.40;;;1.88;;
22415;SDS011;12204;50.600;4.608;2023-02-01T20:53:32;9.73;;;2.20;;
22415;SDS011;12204;50.600;4.608;2023-02-01T20:58:36;8.90;;;2.40;;
22415;SDS011;12204;50.600;4.608;2023-02-01T21:03:40;8.20;;;2.22;;
22415;SDS011;12204;50.600;4.608;2023-02-01T21:08:45;8.93;;;2.20;;
22415;SDS011;12204;50.600;4.608;2023-02-01T21:13:49;8.02;;;2.15;;
22415;SDS011;12204;50.600;4.608;2023-02-01T21:18:53;8.32;;;1.98;;
22415;SDS011;12204;50.600;4.608;2023-02-01T21:23:58;8.05;;;2.20;;
22415;SDS011;12204;50.600;4.608;2023-02-01T21:29:02;6.78;;;1.77;;
22415;SDS011;12204;50.600;4.608;2023-02-01T21:34:06;7.65;;;2.20;;
22415;SDS011;12204;50.600;4.608;2023-02-01T21:39:12;7.70;;;2.10;;
22415;SDS011;12204;50.600;4.608;2023-02-01T21:44:17;9.07;;;2.30;;
22415;SDS011;12204;50.600;4.608;2023-02-01T21:49:21;9.70;;;2.40;;
22415;SDS011;12204;50.600;4.608;2023-02-01T21:54:29;7.68;;;2.20;;
22415;SDS011;12204;50.600;4.608;2023-02-01T21:59:33;8.23;;;2.30;;
22415;SDS011;12204;50.600;4.608;2023-02-01T22:04:37;7.40;;;1.98;;
22415;SDS011;12204;50.600;4.608;2023-02-01T22:09:42;9.60;;;2.25;;
22415;SDS011;12204;50.600;4.608;2023-02-01T22:14:47;10.15;;;2.40;;
22415;SDS011;12204;50.600;4.608;2023-02-01T22:19:50;7.78;;;2.40;;
22415;SDS011;12204;50.600;4.608;2023-02-01T22:24:56;8.20;;;2.40;;
22415;SDS011;12204;50.600;4.608;2023-02-01T22:29:59;7.50;;;2.05;;
22415;SDS011;12204;50.600;4.608;2023-02-01T22:35:03;7.13;;;2.40;;
22415;SDS011;12204;50.600;4.608;2023-02-01T22:40:11;8.40;;;2.22;;
22415;SDS011;12204;50.600;4.608;2023-02-01T22:45:15;8.30;;;2.00;;
22415;SDS011;12204;50.600;4.608;2023-02-01T22:50:19;7.22;;;2.20;;
22415;SDS011;12204;50.600;4.608;2023-02-01T22:55:24;9.05;;;2.40;;
22415;SDS011;12204;50.600;4.608;2023-02-01T23:00:28;8.32;;;2.08;;
22415;SDS011;12204;50.600;4.608;2023-02-01T23:05:32;9.32;;;2.42;;
22415;SDS011;12204;50.600;4.608;2023-02-01T23:10:37;9.95;;;2.50;;
22415;SDS011;12204;50.600;4.608;2023-02-01T23:15:41;7.72;;;2.10;;
22415;SDS011;12204;50.600;4.608;2023-02-01T23:20:45;9.02;;;2.55;;
22415;SDS011;12204;50.600;4.608;2023-02-01T23:25:50;8.60;;;2.58;;
22415;SDS011;12204;50.600;4.608;2023-02-01T23:30:54;9.60;;;2.50;;
22415;SDS011;12204;50.600;4.608;2023-02-01T23:35:59;9.25;;;2.45;;
22415;SDS011;12204;50.600;4.608;2023-02-01T23:41:08;9.43;;;2.47;;
22415;SDS011;12204;50.600;4.608;2023-02-01T23:46:13;8.87;;;2.50;;
22415;SDS011;12204;50.600;4.608;2023-02-01T23:51:18;10.13;;;2.65;;
22415;SDS011;12204;50.600;4.608;2023-02-01T23:56:27;8.85;;;2.42;;
